sensor_id;sensor_type;location;lat;lon;timestamp;temperature;humidity
54884;DHT22;40776;52.880;6.016;2023-06-26T00:07:34;23.00;99.90
54884;DHT22;40776;52.880;6.016;2023-06-26T00:19:47;22.90;99.90
54884;DHT22;40776;52.880;6.016;2023-06-26T00:49:02;22.70;99.90
54884;DHT22;40776;52.880;6.016;2023-06-26T00:51:31;22.60;99.90
54884;DHT22;40776;52.880;6.016;2023-06-26T01:16:03;22.30;99.90
54884;DHT22;40776;52.880;6.016;2023-06-26T01:31:19;22.30;99.90
54884;DHT22;40776;52.880;6.016;2023-06-26T01:41:04;21.60;99.90
54884;DHT22;40776;52.880;6.016;2023-06-26T01:53:46;21.60;99.90
54884;DHT22;40776;52.880;6.016;2023-06-26T03:48:30;21.50;99.90
54884;DHT22;40776;52.880;6.016;2023-06-26T05:31:06;20.90;99.90
54884;DHT22;40776;52.880;6.016;2023-06-26T05:38:26;20.80;99.90
54884;DHT22;40776;52.880;6.016;2023-06-26T05:50:39;21.20;99.90
54884;DHT22;40776;52.880;6.016;2023-06-26T05:53:07;21.40;99.90
54884;DHT22;40776;52.880;6.016;2023-06-26T05:55:33;21.40;99.90
54884;DHT22;40776;52.880;6.016;2023-06-26T06:00:27;21.50;99.90
54884;DHT22;40776;52.880;6.016;2023-06-26T06:05:22;21.50;99.90
54884;DHT22;40776;52.880;6.016;2023-06-26T06:07:49;21.70;99.90
54884;DHT22;40776;52.880;6.016;2023-06-26T06:10:14;21.80;99.90
54884;DHT22;40776;52.880;6.016;2023-06-26T06:17:32;22.10;99.90
54884;DHT22;40776;52.880;6.016;2023-06-26T06:20:01;22.10;99.90
54884;DHT22;40776;52.880;6.016;2023-06-26T06:24:52;22.10;99.90
54884;DHT22;40776;52.880;6.016;2023-06-26T06:27:18;22.20;99.90
54884;DHT22;40776;52.880;6.016;2023-06-26T06:29:44;22.40;99.90
54884;DHT22;40776;52.880;6.016;2023-06-26T06:34:35;22.20;99.90
54884;DHT22;40776;52.880;6.016;2023-06-26T06:39:28;22.70;99.90
54884;DHT22;40776;52.880;6.016;2023-06-26T06:51:41;22.50;99.90
54884;DHT22;40776;52.880;6.016;2023-06-26T06:58:59;22.80;99.90
54884;DHT22;40776;52.880;6.016;2023-06-26T07:03:51;22.80;99.90
54884;DHT22;40776;52.880;6.016;2023-06-26T07:13:35;22.60;99.90
54884;DHT22;40776;52.880;6.016;2023-06-26T07:16:00;22.90;99.90
54884;DHT22;40776;52.880;6.016;2023-06-26T07:18:26;22.90;99.90
54884;DHT22;40776;52.880;6.016;2023-06-26T07:20:51;23.00;99.90
54884;DHT22;40776;52.880;6.016;2023-06-26T07:23:17;23.10;99.90
54884;DHT22;40776;52.880;6.016;2023-06-26T07:25:43;22.90;99.90
54884;DHT22;40776;52.880;6.016;2023-06-26T07:28:12;23.10;99.90
54884;DHT22;40776;52.880;6.016;2023-06-26T07:30:38;23.10;99.90
54884;DHT22;40776;52.880;6.016;2023-06-26T07:33:04;23.50;99.90
54884;DHT22;40776;52.880;6.016;2023-06-26T07:35:30;23.50;99.90
54884;DHT22;40776;52.880;6.016;2023-06-26T07:37:56;23.50;99.90
54884;DHT22;40776;52.880;6.016;2023-06-26T07:40:22;23.70;99.90
54884;DHT22;40776;52.880;6.016;2023-06-26T07:42:48;23.80;99.90
54884;DHT22;40776;52.880;6.016;2023-06-26T07:45:14;23.80;99.90
54884;DHT22;40776;52.880;6.016;2023-06-26T07:47:40;23.70;99.90
54884;DHT22;40776;52.880;6.016;2023-06-26T07:50:06;24.00;99.90
54884;DHT22;40776;52.880;6.016;2023-06-26T07:52:32;23.90;99.90
54884;DHT22;40776;52.880;6.016;2023-06-26T08:02:16;23.50;99.90
54884;DHT22;40776;52.880;6.016;2023-06-26T08:04:43;23.60;99.90
54884;DHT22;40776;52.880;6.016;2023-06-26T08:07:09;23.60;99.90
54884;DHT22;40776;52.880;6.016;2023-06-26T08:09:35;23.70;99.90
54884;DHT22;40776;52.880;6.016;2023-06-26T08:14:27;23.70;99.90
54884;DHT22;40776;52.880;6.016;2023-06-26T08:16:53;23.80;99.90
54884;DHT22;40776;52.880;6.016;2023-06-26T08:19:19;23.70;99.90
54884;DHT22;40776;52.880;6.016;2023-06-26T08:21:45;23.70;99.90
54884;DHT22;40776;52.880;6.016;2023-06-26T08:24:14;23.50;99.90
54884;DHT22;40776;52.880;6.016;2023-06-26T08:26:45;23.70;99.90
54884;DHT22;40776;52.880;6.016;2023-06-26T08:29:14;23.10;99.90
54884;DHT22;40776;52.880;6.016;2023-06-26T08:31:41;23.00;99.90
54884;DHT22;40776;52.880;6.016;2023-06-26T08:38:59;22.50;99.90
54884;DHT22;40776;52.880;6.016;2023-06-26T08:41:25;22.60;99.90
54884;DHT22;40776;52.880;6.016;2023-06-26T08:46:19;22.70;99.90
54884;DHT22;40776;52.880;6.016;2023-06-26T08:48:49;23.00;99.90
54884;DHT22;40776;52.880;6.016;2023-06-26T08:51:17;23.10;99.90
54884;DHT22;40776;52.880;6.016;2023-06-26T08:53:57;23.00;99.90
54884;DHT22;40776;52.880;6.016;2023-06-26T08:56:26;23.20;99.90
54884;DHT22;40776;52.880;6.016;2023-06-26T08:58:53;23.30;99.90
54884;DHT22;40776;52.880;6.016;2023-06-26T09:01:20;23.50;99.90
54884;DHT22;40776;52.880;6.016;2023-06-26T09:03:46;23.60;99.90
54884;DHT22;40776;52.880;6.016;2023-06-26T09:06:12;23.80;99.90
54884;DHT22;40776;52.880;6.016;2023-06-26T09:08:38;24.00;99.90
54884;DHT22;40776;52.880;6.016;2023-06-26T09:11:03;23.80;99.90
54884;DHT22;40776;52.880;6.016;2023-06-26T09:13:31;23.40;99.90
54884;DHT22;40776;52.880;6.016;2023-06-26T09:15:58;23.60;99.90
54884;DHT22;40776;52.880;6.016;2023-06-26T09:18:24;23.60;99.90
54884;DHT22;40776;52.880;6.016;2023-06-26T09:23:16;23.50;99.90
54884;DHT22;40776;52.880;6.016;2023-06-26T09:25:42;23.70;99.90
54884;DHT22;40776;52.880;6.016;2023-06-26T09:28:10;24.00;99.90
54884;DHT22;40776;52.880;6.016;2023-06-26T09:30:36;23.70;99.90
54884;DHT22;40776;52.880;6.016;2023-06-26T09:33:20;24.40;99.90
54884;DHT22;40776;52.880;6.016;2023-06-26T09:35:47;24.20;99.90
54884;DHT22;40776;52.880;6.016;2023-06-26T09:38:13;23.50;99.90
54884;DHT22;40776;52.880;6.016;2023-06-26T09:40:42;23.30;99.90
54884;DHT22;40776;52.880;6.016;2023-06-26T09:43:10;23.30;99.90
54884;DHT22;40776;52.880;6.016;2023-06-26T09:45:39;23.10;99.90
54884;DHT22;40776;52.880;6.016;2023-06-26T09:48:06;23.50;99.90
54884;DHT22;40776;52.880;6.016;2023-06-26T09:50:34;23.60;99.90
54884;DHT22;40776;52.880;6.016;2023-06-26T09:53:13;23.50;99.90
54884;DHT22;40776;52.880;6.016;2023-06-26T09:55:40;23.00;99.90
54884;DHT22;40776;52.880;6.016;2023-06-26T09:58:11;23.10;99.90
54884;DHT22;40776;52.880;6.016;2023-06-26T10:00:41;23.10;99.90
54884;DHT22;40776;52.880;6.016;2023-06-26T10:03:10;23.10;99.90
54884;DHT22;40776;52.880;6.016;2023-06-26T10:05:38;22.90;99.90
54884;DHT22;40776;52.880;6.016;2023-06-26T10:08:05;22.70;99.90
54884;DHT22;40776;52.880;6.016;2023-06-26T10:10:35;22.90;99.90
54884;DHT22;40776;52.880;6.016;2023-06-26T10:13:13;22.70;99.90
54884;DHT22;40776;52.880;6.016;2023-06-26T10:15:42;22.40;99.90
54884;DHT22;40776;52.880;6.016;2023-06-26T10:18:10;22.90;99.90
54884;DHT22;40776;52.880;6.016;2023-06-26T10:20:36;22.80;99.90
54884;DHT22;40776;52.880;6.016;2023-06-26T10:23:03;23.00;99.90
54884;DHT22;40776;52.880;6.016;2023-06-26T10:25:31;23.10;99.90
54884;DHT22;40776;52.880;6.016;2023-06-26T10:28:00;23.40;99.90
54884;DHT22;40776;52.880;6.016;2023-06-26T10:30:31;23.60;99.90
54884;DHT22;40776;52.880;6.016;2023-06-26T10:32:59;23.00;99.90
54884;DHT22;40776;52.880;6.016;2023-06-26T10:38:00;23.00;99.90
54884;DHT22;40776;52.880;6.016;2023-06-26T10:40:28;23.30;99.90
54884;DHT22;40776;52.880;6.016;2023-06-26T10:43:08;23.30;99.90
54884;DHT22;40776;52.880;6.016;2023-06-26T10:45:35;23.50;99.90
54884;DHT22;40776;52.880;6.016;2023-06-26T10:48:02;23.30;99.90
54884;DHT22;40776;52.880;6.016;2023-06-26T10:50:33;23.40;99.90
54884;DHT22;40776;52.880;6.016;2023-06-26T10:53:13;23.70;99.90
54884;DHT22;40776;52.880;6.016;2023-06-26T10:56:00;23.40;99.90
54884;DHT22;40776;52.880;6.016;2023-06-26T11:01:16;23.70;99.90
54884;DHT22;40776;52.880;6.016;2023-06-26T11:03:46;23.80;99.90
54884;DHT22;40776;52.880;6.016;2023-06-26T11:06:19;24.10;99.90
54884;DHT22;40776;52.880;6.016;2023-06-26T11:08:51;23.90;99.90
54884;DHT22;40776;52.880;6.016;2023-06-26T11:11:19;23.70;99.90
54884;DHT22;40776;52.880;6.016;2023-06-26T11:13:47;23.50;99.90
54884;DHT22;40776;52.880;6.016;2023-06-26T11:16:14;23.00;99.90
54884;DHT22;40776;52.880;6.016;2023-06-26T11:21:09;23.70;99.90
54884;DHT22;40776;52.880;6.016;2023-06-26T11:26:16;23.50;99.90
54884;DHT22;40776;52.880;6.016;2023-06-26T11:28:50;23.60;99.90
54884;DHT22;40776;52.880;6.016;2023-06-26T11:33:59;23.70;99.90
54884;DHT22;40776;52.880;6.016;2023-06-26T11:36:29;23.80;99.90
54884;DHT22;40776;52.880;6.016;2023-06-26T11:38:59;23.60;99.90
54884;DHT22;40776;52.880;6.016;2023-06-26T11:41:30;23.40;99.90
54884;DHT22;40776;52.880;6.016;2023-06-26T11:44:03;23.60;99.90
54884;DHT22;40776;52.880;6.016;2023-06-26T11:46:30;23.40;99.90
54884;DHT22;40776;52.880;6.016;2023-06-26T11:51:23;23.70;99.90
54884;DHT22;40776;52.880;6.016;2023-06-26T11:56:16;23.50;99.90
54884;DHT22;40776;52.880;6.016;2023-06-26T11:59:12;23.40;99.90
54884;DHT22;40776;52.880;6.016;2023-06-26T12:01:43;23.60;99.90
54884;DHT22;40776;52.880;6.016;2023-06-26T12:04:16;23.40;99.90
54884;DHT22;40776;52.880;6.016;2023-06-26T12:06:45;23.40;99.90
54884;DHT22;40776;52.880;6.016;2023-06-26T12:09:13;22.90;99.90
54884;DHT22;40776;52.880;6.016;2023-06-26T12:16:35;23.30;99.90
54884;DHT22;40776;52.880;6.016;2023-06-26T12:19:02;23.10;99.90
54884;DHT22;40776;52.880;6.016;2023-06-26T12:21:34;23.30;99.90
54884;DHT22;40776;52.880;6.016;2023-06-26T12:29:11;23.00;99.90
54884;DHT22;40776;52.880;6.016;2023-06-26T12:31:40;23.30;99.90
54884;DHT22;40776;52.880;6.016;2023-06-26T12:34:10;23.30;99.90
54884;DHT22;40776;52.880;6.016;2023-06-26T12:37:09;23.10;99.90
54884;DHT22;40776;52.880;6.016;2023-06-26T12:39:52;23.20;99.90
54884;DHT22;40776;52.880;6.016;2023-06-26T12:42:19;23.00;99.90
54884;DHT22;40776;52.880;6.016;2023-06-26T12:44:46;23.10;99.90
54884;DHT22;40776;52.880;6.016;2023-06-26T12:47:14;23.20;99.90
54884;DHT22;40776;52.880;6.016;2023-06-26T12:49:41;23.00;99.90
54884;DHT22;40776;52.880;6.016;2023-06-26T12:52:15;22.90;99.90
54884;DHT22;40776;52.880;6.016;2023-06-26T12:54:43;23.10;99.90
54884;DHT22;40776;52.880;6.016;2023-06-26T12:59:37;23.00;99.90
54884;DHT22;40776;52.880;6.016;2023-06-26T13:02:03;23.00;99.90
54884;DHT22;40776;52.880;6.016;2023-06-26T13:06:56;22.90;99.90
54884;DHT22;40776;52.880;6.016;2023-06-26T13:09:25;23.00;99.90
54884;DHT22;40776;52.880;6.016;2023-06-26T13:11:54;23.10;99.90
54884;DHT22;40776;52.880;6.016;2023-06-26T13:14:20;23.20;99.90
54884;DHT22;40776;52.880;6.016;2023-06-26T13:24:05;23.50;99.90
54884;DHT22;40776;52.880;6.016;2023-06-26T13:26:33;23.50;99.90
54884;DHT22;40776;52.880;6.016;2023-06-26T13:28:59;23.30;99.90
54884;DHT22;40776;52.880;6.016;2023-06-26T13:38:44;23.10;99.90
54884;DHT22;40776;52.880;6.016;2023-06-26T13:50:58;23.10;99.90
54884;DHT22;40776;52.880;6.016;2023-06-26T14:03:10;23.00;99.90
54884;DHT22;40776;52.880;6.016;2023-06-26T14:05:37;23.20;99.90
54884;DHT22;40776;52.880;6.016;2023-06-26T14:08:04;23.30;99.90
54884;DHT22;40776;52.880;6.016;2023-06-26T14:10:30;23.20;99.90
54884;DHT22;40776;52.880;6.016;2023-06-26T14:17:49;23.30;99.90
54884;DHT22;40776;52.880;6.016;2023-06-26T14:25:10;23.60;99.90
54884;DHT22;40776;52.880;6.016;2023-06-26T14:27:38;23.80;99.90
54884;DHT22;40776;52.880;6.016;2023-06-26T14:30:04;24.20;99.90
54884;DHT22;40776;52.880;6.016;2023-06-26T14:32:30;24.20;99.90
54884;DHT22;40776;52.880;6.016;2023-06-26T14:34:57;24.40;99.90
54884;DHT22;40776;52.880;6.016;2023-06-26T14:37:23;24.70;99.90
54884;DHT22;40776;52.880;6.016;2023-06-26T14:39:49;24.60;99.90
54884;DHT22;40776;52.880;6.016;2023-06-26T14:42:15;25.20;99.90
54884;DHT22;40776;52.880;6.016;2023-06-26T14:44:41;25.50;99.90
54884;DHT22;40776;52.880;6.016;2023-06-26T14:47:07;25.50;99.90
54884;DHT22;40776;52.880;6.016;2023-06-26T14:54:25;23.90;99.90
54884;DHT22;40776;52.880;6.016;2023-06-26T14:59:18;24.40;99.90
54884;DHT22;40776;52.880;6.016;2023-06-26T15:01:45;25.20;99.90
54884;DHT22;40776;52.880;6.016;2023-06-26T15:04:11;25.10;99.90
54884;DHT22;40776;52.880;6.016;2023-06-26T15:06:37;24.90;99.90
54884;DHT22;40776;52.880;6.016;2023-06-26T15:11:29;25.00;99.90
54884;DHT22;40776;52.880;6.016;2023-06-26T15:16:22;25.00;99.90
54884;DHT22;40776;52.880;6.016;2023-06-26T15:23:40;24.80;99.90
54884;DHT22;40776;52.880;6.016;2023-06-26T15:26:05;25.10;99.90
54884;DHT22;40776;52.880;6.016;2023-06-26T15:28:31;24.40;99.90
54884;DHT22;40776;52.880;6.016;2023-06-26T15:38:15;24.20;99.90
54884;DHT22;40776;52.880;6.016;2023-06-26T15:47:59;23.70;99.90
54884;DHT22;40776;52.880;6.016;2023-06-26T15:55:19;24.40;99.90
54884;DHT22;40776;52.880;6.016;2023-06-26T15:57:45;25.10;99.90
54884;DHT22;40776;52.880;6.016;2023-06-26T16:00:11;25.50;99.90
54884;DHT22;40776;52.880;6.016;2023-06-26T16:02:37;25.80;99.90
54884;DHT22;40776;52.880;6.016;2023-06-26T16:05:04;25.80;99.90
54884;DHT22;40776;52.880;6.016;2023-06-26T16:09:56;26.10;99.90
54884;DHT22;40776;52.880;6.016;2023-06-26T16:12:23;26.00;99.90
54884;DHT22;40776;52.880;6.016;2023-06-26T16:14:48;26.20;99.90
54884;DHT22;40776;52.880;6.016;2023-06-26T16:19:40;25.30;99.80
54884;DHT22;40776;52.880;6.016;2023-06-26T16:22:06;25.30;99.90
54884;DHT22;40776;52.880;6.016;2023-06-26T16:29:26;26.10;99.90
54884;DHT22;40776;52.880;6.016;2023-06-26T16:31:54;26.30;99.90
54884;DHT22;40776;52.880;6.016;2023-06-26T16:34:21;26.00;99.90
54884;DHT22;40776;52.880;6.016;2023-06-26T16:39:17;26.20;99.90
54884;DHT22;40776;52.880;6.016;2023-06-26T16:41:48;26.00;99.90
54884;DHT22;40776;52.880;6.016;2023-06-26T16:44:20;25.60;99.90
54884;DHT22;40776;52.880;6.016;2023-06-26T16:46:46;26.30;99.50
54884;DHT22;40776;52.880;6.016;2023-06-26T16:49:11;25.80;99.90
54884;DHT22;40776;52.880;6.016;2023-06-26T16:51:37;25.90;99.90
54884;DHT22;40776;52.880;6.016;2023-06-26T16:54:03;25.90;99.90
54884;DHT22;40776;52.880;6.016;2023-06-26T16:56:28;26.10;99.90
54884;DHT22;40776;52.880;6.016;2023-06-26T16:58:54;25.90;98.90
54884;DHT22;40776;52.880;6.016;2023-06-26T17:01:20;26.40;99.00
54884;DHT22;40776;52.880;6.016;2023-06-26T17:03:46;26.50;98.90
54884;DHT22;40776;52.880;6.016;2023-06-26T17:06:12;26.40;99.50
54884;DHT22;40776;52.880;6.016;2023-06-26T17:08:38;26.20;99.40
54884;DHT22;40776;52.880;6.016;2023-06-26T17:11:04;26.10;98.70
54884;DHT22;40776;52.880;6.016;2023-06-26T17:18:22;26.30;97.50
54884;DHT22;40776;52.880;6.016;2023-06-26T17:25:40;25.90;99.90
54884;DHT22;40776;52.880;6.016;2023-06-26T17:30:32;26.10;99.40
54884;DHT22;40776;52.880;6.016;2023-06-26T17:32:59;26.10;97.70
54884;DHT22;40776;52.880;6.016;2023-06-26T17:37:51;25.90;99.00
54884;DHT22;40776;52.880;6.016;2023-06-26T17:40:17;25.70;99.70
54884;DHT22;40776;52.880;6.016;2023-06-26T17:45:09;25.30;99.90
54884;DHT22;40776;52.880;6.016;2023-06-26T17:47:35;25.30;99.90
54884;DHT22;40776;52.880;6.016;2023-06-26T17:50:05;25.30;99.90
54884;DHT22;40776;52.880;6.016;2023-06-26T17:57:23;21.20;99.90
54884;DHT22;40776;52.880;6.016;2023-06-26T18:16:52;18.40;99.90
54884;DHT22;40776;52.880;6.016;2023-06-26T23:42:55;14.80;99.90
